Airfield :
LOGIN :

Register | Disclaimer

   EN    FR    IT 

 










Legend :    VFR   Marginal VFR   IFR   Intensive IFR   Very Intensive IFR
Visi :
Ceiling :
>= 8 km
>= 3000ft
5 to 8 km
1000 to 3000 ft
1500m to 5 km
500 to 1000 ft
800 to 1500m
200 to 500 ft
< 800m
< 200 ft
Symbols :   Thunderstorms  Fog  Heavy snow  Heavy precipitations  Wind > 20 kt
SIGMETs :     Misc.  Thunderstorms  Icing  Turbulence  Mountain Waves  Volcanic Ashes






- Airport Elevation : 1079 ft


ETIK - Illesheim Air Base

CURRENT METAR :
  • 290655Z 00000KT 2600 BR OVC007 04/03 A2999 RMK AO2A SLP169 T00350034

EXPIRED METARs :
  • 290555Z 00000KT 4400 BR OVC009 04/03 A2997 RMK AO2A SLP163 60002 T00350034 10042 20035 52010
  • 290455Z AUTO 00000KT 3600 BR OVC009 04/04 A2996 RMK AO2 DZE0358DZB02E13 SLP159 P0000 T00360035
  • 290428Z AUTO 00000KT 4000 BR OVC009 04/04 A2995 RMK AO2 DZE0358DZB02E13 SLP156 $

TAF TAF ETIK
Valid from the 29 at 06:00 until the 30 at 12:00 UTC


290600Z 2906/3012 VRB06KT 4800 BR OVC008 620408 QNH2995INS
BECMG 2913/2914 VRB06KT 9999 NSW BKN012 620408 QNH3000INS
BECMG 2922/2923 VRB06KT 9999 BKN012 QNH3008INS
BECMG 3004/3005 VRB06KT 8000 -SHRA OVC020 QNH3010INS TX06/2914Z TN03/3004Z



MET'MAP, your aeronautical weather chart ! - Copyright ORBIFLY December 2007 - Disclaimer

ORBIFLY MET'MAP TEAM :

Programming & Development : Alexandra Zaïnal
Original concept : Baudouin d'Aumeries
Technical & hardware support : Manuel Goepfert
Assistance : Marc-Olivier Méhu




SOURCES & CREDITS :

   NOAA